createdAt,value
2022-11-16T00:01:29.786Z,99163.50
2022-11-16T00:03:59.506Z,99166.44
2022-11-16T00:06:27.246Z,99161.81
2022-11-16T00:09:18.573Z,99164.00
2022-11-16T00:11:45.268Z,99165.72
2022-11-16T00:14:12.045Z,99158.16
2022-11-16T00:16:40.260Z,99163.72
2022-11-16T00:19:08.437Z,99161.66
2022-11-16T00:21:35.338Z,99163.88
2022-11-16T00:24:03.212Z,99162.91
2022-11-16T00:26:33.234Z,99160.50
2022-11-16T00:28:59.928Z,99159.81
2022-11-16T00:31:26.601Z,99164.84
2022-11-16T00:33:53.230Z,99157.91
2022-11-16T00:36:19.988Z,99154.38
2022-11-16T00:38:47.845Z,99153.59
2022-11-16T00:41:14.515Z,99143.06
2022-11-16T00:43:41.229Z,99150.88
2022-11-16T00:46:09.058Z,99144.38
2022-11-16T00:48:36.070Z,99145.56
2022-11-16T00:51:03.275Z,99143.81
2022-11-16T00:53:30.122Z,99137.31
2022-11-16T00:55:57.465Z,99141.19
2022-11-16T00:58:25.676Z,99136.38
2022-11-16T01:01:07.655Z,99131.44
2022-11-16T01:03:35.976Z,99136.09
2022-11-16T01:06:13.501Z,99129.63
2022-11-16T01:08:42.131Z,99136.56
2022-11-16T01:11:29.113Z,99127.84
2022-11-16T01:13:59.016Z,99121.38
2022-11-16T01:16:25.672Z,99124.78
2022-11-16T01:18:54.588Z,99128.47
2022-11-16T01:21:23.259Z,99125.75
2022-11-16T01:23:51.337Z,99124.59
2022-11-16T01:26:18.637Z,99122.47
2022-11-16T01:28:47.024Z,99122.94
2022-11-16T01:31:14.004Z,99114.38
2022-11-16T01:33:41.771Z,99122.16
2022-11-16T01:36:17.978Z,99134.41
2022-11-16T01:38:47.212Z,99129.06
2022-11-16T01:41:19.144Z,99133.34
2022-11-16T01:44:01.153Z,99126.94
2022-11-16T01:46:37.461Z,99119.25
2022-11-16T01:49:10.566Z,99122.16
2022-11-16T01:51:38.466Z,99107.66
2022-11-16T01:54:08.970Z,99118.16
2022-11-16T01:56:42.874Z,99113.44
2022-11-16T01:59:14.598Z,99106.88
2022-11-16T02:01:41.367Z,99108.56
2022-11-16T02:04:11.285Z,99103.75
2022-11-16T02:07:04.384Z,99103.50
2022-11-16T02:10:06.231Z,99104.03
2022-11-16T02:13:03.920Z,99106.41
2022-11-16T02:15:51.727Z,99108.53
2022-11-16T02:18:49.526Z,99108.41
2022-11-16T02:21:21.269Z,99111.47
2022-11-16T02:24:15.182Z,99109.13
2022-11-16T02:27:21.676Z,99104.84
2022-11-16T02:29:53.422Z,99111.59
2022-11-16T02:32:44.206Z,99113.25
2022-11-16T02:35:14.433Z,99107.50
2022-11-16T02:37:50.391Z,99100.50
2022-11-16T02:40:21.209Z,99105.53
2022-11-16T02:42:54.745Z,99106.44
2022-11-16T02:45:26.105Z,99108.44
2022-11-16T02:47:55.949Z,99118.34
2022-11-16T02:50:25.052Z,99127.81
2022-11-16T02:52:53.571Z,99132.16
2022-11-16T02:55:20.297Z,99125.25
2022-11-16T02:57:53.045Z,99118.78
2022-11-16T03:00:23.247Z,99111.16
2022-11-16T03:03:06.798Z,99097.97
2022-11-16T03:05:41.684Z,99089.84
2022-11-16T03:08:44.188Z,99089.09
2022-11-16T03:11:30.464Z,99084.53
2022-11-16T03:14:05.837Z,99083.91
2022-11-16T03:16:40.604Z,99079.91
2022-11-16T03:19:12.144Z,99080.09
2022-11-16T03:21:57.766Z,99083.81
2022-11-16T03:24:25.477Z,99078.63
2022-11-16T03:26:58.253Z,99073.41
2022-11-16T03:29:30.833Z,99071.59
2022-11-16T03:32:16.727Z,99087.13
2022-11-16T03:34:54.103Z,99103.84
2022-11-16T03:37:22.371Z,99107.94
2022-11-16T03:39:50.935Z,99108.81
2022-11-16T03:42:21.003Z,99112.03
2022-11-16T03:44:49.570Z,99104.94
2022-11-16T03:47:16.291Z,99100.34
2022-11-16T03:49:47.614Z,99119.88
2022-11-16T03:52:17.951Z,99123.53
2022-11-16T03:54:45.104Z,99107.59
2022-11-16T03:57:18.043Z,99106.94
2022-11-16T03:59:50.409Z,99100.75
2022-11-16T04:02:17.226Z,99105.84
2022-11-16T04:05:02.794Z,99106.09
2022-11-16T04:07:48.514Z,99099.06
2022-11-16T04:10:33.845Z,99098.59
2022-11-16T04:13:21.164Z,99120.38
2022-11-16T04:16:06.712Z,99105.16
2022-11-16T04:18:52.446Z,99104.94
2022-11-16T04:21:44.457Z,99130.22
2022-11-16T04:24:18.661Z,99130.03
2022-11-16T04:27:07.547Z,99119.31
2022-11-16T04:29:35.749Z,99110.94
2022-11-16T04:32:21.012Z,99124.41
2022-11-16T04:35:06.659Z,99139.13
2022-11-16T04:37:48.951Z,99137.13
2022-11-16T04:40:29.301Z,99142.56
2022-11-16T04:42:59.362Z,99144.03
2022-11-16T04:45:48.294Z,99137.47
2022-11-16T04:48:19.525Z,99142.78
2022-11-16T04:50:48.356Z,99136.72
2022-11-16T04:53:15.921Z,99134.81
2022-11-16T04:55:46.612Z,99127.00
2022-11-16T04:58:14.182Z,99138.94
2022-11-16T05:00:41.138Z,99131.75
2022-11-16T05:03:09.324Z,99128.78
2022-11-16T05:05:36.576Z,99131.22
2022-11-16T05:08:06.669Z,99138.34
2022-11-16T05:10:33.788Z,99135.56
2022-11-16T05:13:00.701Z,99146.53
2022-11-16T05:15:28.328Z,99140.38
2022-11-16T05:17:56.682Z,99146.06
2022-11-16T05:20:44.125Z,99143.94
2022-11-16T05:23:30.978Z,99150.38
2022-11-16T05:26:02.680Z,99150.13
2022-11-16T05:28:29.721Z,99151.78
2022-11-16T05:30:57.408Z,99141.88
2022-11-16T05:33:26.258Z,99128.78
2022-11-16T05:35:53.135Z,99134.34
2022-11-16T05:38:21.286Z,99137.53
2022-11-16T05:40:52.493Z,99140.44
2022-11-16T05:43:20.394Z,99142.66
2022-11-16T05:45:58.633Z,99153.06
2022-11-16T05:48:25.629Z,99144.47
2022-11-16T05:51:00.971Z,99150.16
2022-11-16T05:53:32.448Z,99147.72
2022-11-16T05:55:59.241Z,99150.69
2022-11-16T05:58:26.504Z,99147.53
2022-11-16T06:00:53.761Z,99155.00
2022-11-16T06:03:21.835Z,99146.97
2022-11-16T06:05:48.897Z,99148.00
2022-11-16T06:08:17.387Z,99156.06
2022-11-16T06:10:45.278Z,99158.50
2022-11-16T06:13:12.409Z,99158.81
2022-11-16T06:15:41.509Z,99155.66
2022-11-16T06:18:10.140Z,99160.50
2022-11-16T06:20:40.764Z,99162.91
2022-11-16T06:23:07.527Z,99167.44
2022-11-16T06:25:35.076Z,99161.53
2022-11-16T06:28:07.455Z,99170.72
2022-11-16T06:30:35.507Z,99175.81
2022-11-16T06:33:04.334Z,99175.94
2022-11-16T06:35:31.524Z,99168.16
2022-11-16T06:37:58.673Z,99177.03
2022-11-16T06:40:27.239Z,99177.03
2022-11-16T06:42:54.187Z,99180.31
2022-11-16T06:45:21.055Z,99177.75
2022-11-16T06:47:52.464Z,99173.41
2022-11-16T06:50:20.717Z,99185.78
2022-11-16T06:52:49.673Z,99194.41
2022-11-16T06:55:18.464Z,99196.53
2022-11-16T06:57:47.151Z,99194.63
2022-11-16T07:00:14.399Z,99195.88
2022-11-16T07:02:41.719Z,99198.03
2022-11-16T07:05:13.141Z,99198.47
2022-11-16T07:07:41.360Z,99199.22
2022-11-16T07:10:08.902Z,99194.81
2022-11-16T07:12:36.460Z,99198.88
2022-11-16T07:15:05.576Z,99195.94
2022-11-16T07:17:34.138Z,99202.94
2022-11-16T07:20:00.988Z,99215.31
2022-11-16T07:22:30.957Z,99208.81
2022-11-16T07:24:59.468Z,99212.84
2022-11-16T07:27:26.305Z,99207.19
2022-11-16T07:29:54.466Z,99210.75
2022-11-16T07:32:42.943Z,99204.63
2022-11-16T07:35:20.303Z,99218.19
2022-11-16T07:37:46.980Z,99221.38
2022-11-16T07:40:15.269Z,99228.97
2022-11-16T07:42:45.260Z,99234.88
2022-11-16T07:45:30.876Z,99246.72
2022-11-16T07:48:05.094Z,99242.94
2022-11-16T07:50:50.343Z,99253.94
2022-11-16T07:53:20.946Z,99249.44
2022-11-16T07:55:53.977Z,99251.75
2022-11-16T07:58:22.862Z,99251.38
2022-11-16T08:00:50.093Z,99246.88
2022-11-16T08:03:24.528Z,99255.22
2022-11-16T08:06:08.435Z,99262.53
2022-11-16T08:08:35.649Z,99272.22
2022-11-16T08:11:05.267Z,99272.75
2022-11-16T08:13:34.299Z,99274.44
2022-11-16T08:16:08.745Z,99282.28
2022-11-16T08:18:37.845Z,99290.56
2022-11-16T08:21:07.229Z,99276.59
2022-11-16T08:23:34.130Z,99277.69
2022-11-16T08:26:04.276Z,99282.50
2022-11-16T08:28:31.584Z,99280.63
2022-11-16T08:30:59.964Z,99272.34
2022-11-16T08:33:29.327Z,99270.69
2022-11-16T08:35:57.253Z,99270.41
2022-11-16T08:38:25.148Z,99276.88
2022-11-16T08:40:55.340Z,99276.97
2022-11-16T08:43:23.938Z,99284.19
2022-11-16T08:45:52.412Z,99281.03
2022-11-16T08:48:19.805Z,99291.19
2022-11-16T08:51:10.515Z,99291.47
2022-11-16T08:53:33.850Z,99291.47
2022-11-16T08:56:06.115Z,99299.81
2022-11-16T08:58:33.217Z,99294.44
2022-11-16T09:01:07.231Z,99288.69
2022-11-16T09:03:33.934Z,99292.69
2022-11-16T09:06:00.563Z,99292.47
2022-11-16T09:08:27.191Z,99290.78
2022-11-16T09:10:53.759Z,99296.44
2022-11-16T09:13:20.546Z,99295.00
2022-11-16T09:15:47.274Z,99301.44
2022-11-16T09:18:14.001Z,99305.50
2022-11-16T09:20:45.329Z,99305.69
2022-11-16T09:23:13.657Z,99303.47
2022-11-16T09:25:40.270Z,99301.91
2022-11-16T09:28:07.596Z,99310.03
2022-11-16T09:30:34.358Z,99302.41
2022-11-16T09:33:01.966Z,99304.34
2022-11-16T09:35:28.633Z,99290.53
2022-11-16T09:37:55.364Z,99294.88
2022-11-16T09:40:22.406Z,99293.75
2022-11-16T09:43:13.738Z,99307.97
2022-11-16T09:46:14.039Z,99302.78
2022-11-16T09:48:41.715Z,99306.97
2022-11-16T09:51:13.750Z,99303.09
2022-11-16T09:53:47.764Z,99307.16
2022-11-16T09:56:23.066Z,99308.81
2022-11-16T09:58:56.527Z,99313.50
2022-11-16T10:01:30.156Z,99310.50
2022-11-16T10:04:06.554Z,99301.13
2022-11-16T10:06:45.860Z,99315.78
2022-11-16T10:09:13.436Z,99315.88
2022-11-16T10:11:51.642Z,99314.09
2022-11-16T10:14:27.718Z,99315.06
2022-11-16T10:17:03.762Z,99307.78
2022-11-16T10:20:18.397Z,99296.13
2022-11-16T10:23:17.570Z,99284.38
2022-11-16T10:25:46.305Z,99289.50
2022-11-16T10:28:27.625Z,99283.56
2022-11-16T10:31:38.810Z,99289.25
2022-11-16T10:34:09.364Z,99292.13
2022-11-16T10:36:37.532Z,99281.19
2022-11-16T10:39:13.675Z,99289.88
2022-11-16T10:41:53.625Z,99285.75
2022-11-16T10:44:41.967Z,99267.38
2022-11-16T10:47:34.005Z,99281.09
2022-11-16T10:50:04.444Z,99270.56
2022-11-16T10:52:31.277Z,99274.81
2022-11-16T10:54:58.126Z,99270.59
2022-11-16T10:57:26.804Z,99265.63
2022-11-16T10:59:58.964Z,99271.84
2022-11-16T11:02:36.912Z,99274.03
2022-11-16T11:05:20.258Z,99262.84
2022-11-16T11:07:56.739Z,99261.19
2022-11-16T11:10:32.362Z,99257.31
2022-11-16T11:13:13.562Z,99248.31
2022-11-16T11:15:44.667Z,99257.91
2022-11-16T11:18:20.699Z,99250.34
2022-11-16T11:20:53.691Z,99248.41
2022-11-16T11:23:26.429Z,99251.28
2022-11-16T11:25:56.227Z,99246.22
2022-11-16T11:28:26.383Z,99245.34
2022-11-16T11:31:09.248Z,99244.91
2022-11-16T11:33:43.765Z,99241.66
2022-11-16T11:36:18.774Z,99250.41
2022-11-16T11:39:21.014Z,99243.53
2022-11-16T11:42:13.008Z,99245.59
2022-11-16T11:44:57.075Z,99241.00
2022-11-16T11:47:59.603Z,99234.75
2022-11-16T11:50:44.218Z,99237.34
2022-11-16T11:53:23.415Z,99230.84
2022-11-16T11:55:56.919Z,99230.66
2022-11-16T11:58:30.064Z,99221.13
2022-11-16T12:01:16.606Z,99221.81
2022-11-16T12:04:12.978Z,99212.16
2022-11-16T12:06:57.176Z,99219.41
2022-11-16T12:09:49.141Z,99212.41
2022-11-16T12:12:51.389Z,99218.47
2022-11-16T12:15:27.442Z,99213.22
2022-11-16T12:18:16.370Z,99204.59
2022-11-16T12:21:27.618Z,99201.81
2022-11-16T12:24:29.927Z,99194.59
2022-11-16T12:27:14.470Z,99198.19
2022-11-16T12:30:02.498Z,99192.72
2022-11-16T12:32:47.125Z,99193.81
2022-11-16T12:35:41.423Z,99197.72
2022-11-16T12:38:29.454Z,99192.22
2022-11-16T12:41:35.114Z,99192.72
2022-11-16T12:44:08.621Z,99183.13
2022-11-16T12:46:59.323Z,99179.50
2022-11-16T12:50:06.230Z,99186.94
2022-11-16T12:52:49.898Z,99171.94
2022-11-16T12:55:54.843Z,99163.44
2022-11-16T12:59:06.550Z,99169.28
2022-11-16T13:01:40.058Z,99162.41
2022-11-16T13:04:21.550Z,99156.22
2022-11-16T13:07:10.718Z,99148.72
2022-11-16T13:09:44.769Z,99145.06
2022-11-16T13:12:16.985Z,99151.50
2022-11-16T13:14:48.069Z,99140.84
2022-11-16T13:17:32.763Z,99139.22
2022-11-16T13:20:37.384Z,99133.81
2022-11-16T13:23:09.811Z,99128.53
2022-11-16T13:25:50.823Z,99130.63
2022-11-16T13:28:33.989Z,99133.38
2022-11-16T13:31:09.586Z,99124.81
2022-11-16T13:33:39.229Z,99128.97
2022-11-16T13:36:37.719Z,99125.81
2022-11-16T13:39:10.177Z,99117.84
2022-11-16T13:41:41.258Z,99117.81
2022-11-16T13:44:21.720Z,99116.94
2022-11-16T13:46:56.582Z,99121.50
2022-11-16T13:49:35.377Z,99120.75
2022-11-16T13:52:22.559Z,99111.25
2022-11-16T13:54:53.661Z,99106.91
2022-11-16T13:57:29.641Z,99114.97
2022-11-16T14:00:01.998Z,99099.75
2022-11-16T14:02:39.620Z,99095.09
2022-11-16T14:05:15.414Z,99107.31
2022-11-16T14:07:49.386Z,99107.19
2022-11-16T14:10:34.773Z,99104.22
2022-11-16T14:13:06.094Z,99101.16
2022-11-16T14:15:37.665Z,99096.44
2022-11-16T14:18:07.186Z,99100.16
2022-11-16T14:20:51.180Z,99108.41
2022-11-16T14:23:52.081Z,99094.78
2022-11-16T14:26:42.216Z,99099.81
2022-11-16T14:29:23.193Z,99095.91
2022-11-16T14:31:56.671Z,99095.97
2022-11-16T14:34:29.374Z,99095.34
2022-11-16T14:36:58.024Z,99092.72
2022-11-16T14:39:29.563Z,99095.56
2022-11-16T14:42:06.396Z,99095.69
2022-11-16T14:44:39.195Z,99094.84
2022-11-16T14:47:17.946Z,99094.19
2022-11-16T14:49:46.737Z,99096.09
2022-11-16T14:52:14.946Z,99100.69
2022-11-16T14:54:48.698Z,99099.81
2022-11-16T14:57:23.765Z,99097.88
2022-11-16T15:00:08.691Z,99096.91
2022-11-16T15:02:36.711Z,99095.91
2022-11-16T15:05:05.699Z,99088.91
2022-11-16T15:07:32.794Z,99079.31
2022-11-16T15:10:00.603Z,99081.13
2022-11-16T15:12:42.250Z,99079.91
2022-11-16T15:15:11.939Z,99084.44
2022-11-16T15:17:41.041Z,99085.44
2022-11-16T15:20:25.769Z,99071.78
2022-11-16T15:22:55.384Z,99069.97
2022-11-16T15:25:39.710Z,99064.31
2022-11-16T15:28:20.419Z,99056.56
2022-11-16T15:31:04.801Z,99053.38
2022-11-16T15:33:41.605Z,99054.63
2022-11-16T15:36:25.494Z,99058.97
2022-11-16T15:38:55.494Z,99047.91
2022-11-16T15:41:23.620Z,99056.06
2022-11-16T15:44:13.576Z,99048.38
2022-11-16T15:46:42.580Z,99059.03
2022-11-16T15:49:35.519Z,99054.09
2022-11-16T15:52:03.354Z,99055.63
2022-11-16T15:54:53.693Z,99052.38
2022-11-16T15:57:25.499Z,99050.66
2022-11-16T15:59:57.260Z,99038.19
2022-11-16T16:02:30.029Z,99028.03
2022-11-16T16:04:56.928Z,99018.31
2022-11-16T16:07:38.178Z,99011.22
2022-11-16T16:10:20.832Z,99011.41
2022-11-16T16:12:50.410Z,99017.69
2022-11-16T16:15:36.535Z,99025.97
2022-11-16T16:18:12.086Z,99031.53
2022-11-16T16:20:38.794Z,99026.88
2022-11-16T16:23:13.402Z,99040.66
2022-11-16T16:25:40.061Z,99036.34
2022-11-16T16:28:06.688Z,99042.53
2022-11-16T16:30:34.669Z,99038.97
2022-11-16T16:33:02.324Z,99034.91
2022-11-16T16:35:32.179Z,99035.19
2022-11-16T16:38:01.627Z,99026.66
2022-11-16T16:40:29.175Z,99017.69
2022-11-16T16:42:56.944Z,99018.78
2022-11-16T16:45:38.058Z,99020.50
2022-11-16T16:48:07.092Z,99020.22
2022-11-16T16:50:33.722Z,99009.28
2022-11-16T16:53:02.028Z,99011.44
2022-11-16T16:55:32.859Z,99013.34
2022-11-16T16:58:03.782Z,99009.44
2022-11-16T17:00:30.791Z,99010.19
2022-11-16T17:02:58.460Z,99007.97
2022-11-16T17:05:26.420Z,98997.22
2022-11-16T17:07:56.632Z,98991.56
2022-11-16T17:10:23.682Z,98999.09
2022-11-16T17:12:54.091Z,98998.13
2022-11-16T17:15:22.062Z,98989.06
2022-11-16T17:17:48.877Z,98984.56
2022-11-16T17:20:16.292Z,98984.44
2022-11-16T17:22:43.354Z,98987.06
2022-11-16T17:25:10.686Z,98982.25
2022-11-16T17:27:37.390Z,98975.41
2022-11-16T17:30:04.391Z,98974.38
2022-11-16T17:32:31.762Z,98970.25
2022-11-16T17:34:59.309Z,98970.34
2022-11-16T17:37:25.878Z,98971.41
2022-11-16T17:39:52.547Z,98972.28
2022-11-16T17:42:19.149Z,98966.06
2022-11-16T17:44:48.462Z,98963.69
2022-11-16T17:47:16.095Z,98961.38
2022-11-16T17:49:43.336Z,98956.84
2022-11-16T17:52:09.978Z,98950.59
2022-11-16T17:54:36.757Z,98948.94
2022-11-16T17:57:03.529Z,98935.03
2022-11-16T17:59:30.243Z,98934.94
2022-11-16T18:01:57.974Z,98940.97
2022-11-16T18:04:25.374Z,98929.22
2022-11-16T18:06:52.252Z,98933.25
2022-11-16T18:09:19.045Z,98931.38
2022-11-16T18:11:46.149Z,98938.72
2022-11-16T18:14:13.902Z,98932.03
2022-11-16T18:16:44.298Z,98928.97
2022-11-16T18:19:16.246Z,98929.72
2022-11-16T18:21:43.905Z,98935.34
2022-11-16T18:24:11.686Z,98925.19
2022-11-16T18:26:40.421Z,98930.16
2022-11-16T18:29:12.621Z,98922.94
2022-11-16T18:31:39.931Z,98925.63
2022-11-16T18:34:06.577Z,98919.44
2022-11-16T18:36:33.689Z,98923.56
2022-11-16T18:39:00.837Z,98930.56
2022-11-16T18:41:30.706Z,98918.44
2022-11-16T18:43:59.700Z,98918.47
2022-11-16T18:46:28.737Z,98916.28
2022-11-16T18:48:56.270Z,98911.69
2022-11-16T18:51:24.609Z,98910.03
2022-11-16T18:53:52.011Z,98902.44
2022-11-16T18:56:19.331Z,98898.50
2022-11-16T18:58:51.268Z,98896.31
2022-11-16T19:01:20.607Z,98909.81
2022-11-16T19:03:47.588Z,98901.34
2022-11-16T19:06:16.987Z,98896.97
2022-11-16T19:08:46.850Z,98896.31
2022-11-16T19:11:17.028Z,98887.38
2022-11-16T19:13:45.081Z,98896.31
2022-11-16T19:16:13.392Z,98892.75
2022-11-16T19:18:40.416Z,98884.47
2022-11-16T19:21:14.934Z,98889.47
2022-11-16T19:23:47.175Z,98901.00
2022-11-16T19:26:16.153Z,98899.03
2022-11-16T19:28:45.789Z,98895.38
2022-11-16T19:31:15.739Z,98884.06
2022-11-16T19:33:43.163Z,98883.88
2022-11-16T19:36:15.397Z,98884.97
2022-11-16T19:38:42.734Z,98891.56
2022-11-16T19:41:10.734Z,98898.06
2022-11-16T19:43:38.274Z,98897.63
2022-11-16T19:46:10.942Z,98893.47
2022-11-16T19:48:38.143Z,98895.75
2022-11-16T19:51:14.390Z,98904.34
2022-11-16T19:53:41.084Z,98904.22
2022-11-16T19:56:11.055Z,98892.94
2022-11-16T19:58:38.513Z,98892.13
2022-11-16T20:01:12.175Z,98883.50
2022-11-16T20:03:40.284Z,98878.78
2022-11-16T20:06:17.124Z,98870.09
2022-11-16T20:08:50.624Z,98862.59
2022-11-16T20:11:20.587Z,98853.13
2022-11-16T20:13:49.210Z,98849.22
2022-11-16T20:16:18.387Z,98853.44
2022-11-16T20:18:45.999Z,98845.56
2022-11-16T20:21:19.281Z,98852.75
2022-11-16T20:23:46.449Z,98848.78
2022-11-16T20:26:14.051Z,98850.78
2022-11-16T20:28:42.570Z,98855.88
2022-11-16T20:31:16.692Z,98854.94
2022-11-16T20:33:50.487Z,98853.94
2022-11-16T20:36:17.762Z,98844.13
2022-11-16T20:38:44.488Z,98841.72
2022-11-16T20:41:19.612Z,98838.66
2022-11-16T20:43:47.603Z,98834.19
2022-11-16T20:46:16.783Z,98840.03
2022-11-16T20:48:44.649Z,98836.38
2022-11-16T20:51:13.691Z,98829.81
2022-11-16T20:53:40.546Z,98832.31
2022-11-16T20:56:10.017Z,98823.25
2022-11-16T20:58:37.166Z,98817.63
2022-11-16T21:01:07.321Z,98821.03
2022-11-16T21:03:34.837Z,98815.03
2022-11-16T21:06:01.876Z,98811.97
2022-11-16T21:08:29.817Z,98817.81
2022-11-16T21:10:56.666Z,98811.44
2022-11-16T21:13:42.547Z,98807.56
2022-11-16T21:16:12.003Z,98814.31
2022-11-16T21:18:45.025Z,98806.16
2022-11-16T21:21:13.239Z,98816.38
2022-11-16T21:23:43.089Z,98798.59
2022-11-16T21:26:12.401Z,98799.56
2022-11-16T21:28:39.921Z,98787.41
2022-11-16T21:31:09.684Z,98787.69
2022-11-16T21:33:36.750Z,98794.88
2022-11-16T21:36:11.032Z,98795.69
2022-11-16T21:38:38.655Z,98794.19
2022-11-16T21:41:06.368Z,98796.69
2022-11-16T21:43:36.390Z,98793.28
2022-11-16T21:46:18.472Z,98786.44
2022-11-16T21:48:47.715Z,98774.38
2022-11-16T21:51:20.113Z,98774.53
2022-11-16T21:53:47.539Z,98770.72
2022-11-16T21:56:16.619Z,98783.09
2022-11-16T21:58:43.391Z,98777.06
2022-11-16T22:01:11.499Z,98774.66
2022-11-16T22:03:38.839Z,98772.97
2022-11-16T22:06:25.787Z,98763.59
2022-11-16T22:08:52.806Z,98769.63
2022-11-16T22:11:22.125Z,98760.47
2022-11-16T22:13:50.666Z,98766.19
2022-11-16T22:16:18.632Z,98764.75
2022-11-16T22:18:45.622Z,98756.03
2022-11-16T22:21:12.404Z,98761.84
2022-11-16T22:23:39.428Z,98758.13
2022-11-16T22:26:09.375Z,98754.34
2022-11-16T22:28:37.415Z,98747.66
2022-11-16T22:31:04.400Z,98753.38
2022-11-16T22:33:31.977Z,98744.22
2022-11-16T22:35:59.722Z,98741.72
2022-11-16T22:38:27.093Z,98745.88
2022-11-16T22:40:55.952Z,98742.44
2022-11-16T22:43:25.351Z,98750.25
2022-11-16T22:45:52.015Z,98732.81
2022-11-16T22:48:18.654Z,98736.44
2022-11-16T22:50:45.378Z,98731.19
2022-11-16T22:53:12.172Z,98721.66
2022-11-16T22:55:39.418Z,98719.41
2022-11-16T22:58:07.688Z,98719.19
2022-11-16T23:00:40.658Z,98715.47
2022-11-16T23:03:08.755Z,98710.81
2022-11-16T23:05:35.424Z,98702.06
2022-11-16T23:08:02.167Z,98692.19
2022-11-16T23:10:29.410Z,98689.19
2022-11-16T23:13:28.337Z,98697.88
2022-11-16T23:15:57.284Z,98693.22
2022-11-16T23:18:23.883Z,98696.06
2022-11-16T23:21:12.077Z,98682.66
2022-11-16T23:23:57.260Z,98681.28
2022-11-16T23:26:43.211Z,98678.66
2022-11-16T23:29:11.344Z,98680.75
2022-11-16T23:31:38.299Z,98683.81
2022-11-16T23:34:05.480Z,98672.53
2022-11-16T23:36:32.126Z,98664.50
2022-11-16T23:38:58.745Z,98658.59
2022-11-16T23:41:45.138Z,98656.25
2022-11-16T23:44:11.963Z,98645.31
2022-11-16T23:46:38.866Z,98639.00
2022-11-16T23:49:05.482Z,98633.50
2022-11-16T23:51:32.124Z,98620.91
2022-11-16T23:53:58.862Z,98611.59
2022-11-16T23:56:27.553Z,98613.28
2022-11-16T23:58:57.383Z,98611.84
